ADDS METAR Data INFO
IDs: Format: Raw Decoded Include TAF

Data at: 0750 UTC 17 Oct 2017

KSDY 170656Z AUTO 20009KT 10SM CLR 06/00 A2992 RMK AO2 SLP140 T00560000
KSDY 170556Z AUTO 19008KT 10SM CLR 06/00 A2992 RMK AO2 SLP141 T00560000 10144 20028 402060011 58009
KSDY 170456Z AUTO 20007KT 10SM CLR 04/00 A2994 RMK AO2 SLP151 T00390000
KSDY 170356Z AUTO 00000KT 10SM CLR 04/00 A2995 RMK AO2 SLP157 T00440000
KSDY 170256Z AUTO 23003KT 10SM CLR 07/00 A2995 RMK AO2 SLP159 T00720000 56003
KSDY 170156Z AUTO 20004KT 10SM CLR 08/01 A2995 RMK AO2 SLP161 T00780006
KSDY 162356Z AUTO 29006KT 10SM CLR 15/00 A2996 RMK AO2 SLP159 T01500000 10206 20150 51003
KSDY 162256Z AUTO 30010KT 10SM CLR 18/00 A2996 RMK AO2 SLP156 T01830000
KSDY 162156Z AUTO 30014G20KT 10SM CLR 19/M01 A2996 RMK AO2 SLP155 T01891006
KSDY 162056Z AUTO 29019G22KT 10SM CLR 19/00 A2995 RMK AO2 PK WND 28028/2016 SLP153 T01890000 55004
KSDY 161956Z AUTO 29021G24KT 10SM CLR 19/00 A2995 RMK AO2 PK WND 31030/1905 SLP153 T01940000
KSDY 161856Z AUTO 30022G28KT 10SM CLR 19/00 A2996 RMK AO2 PK WND 29029/1840 SLP154 T01940000
KSDY 161756Z AUTO 29017G27KT 10SM CLR 19/01 A2997 RMK AO2 PK WND 30027/1748 SLP156 T01890011 10189 20011 58006
KSDY 161656Z AUTO 29018G23KT 10SM CLR 17/02 A2997 RMK AO2 WSHFT 1558 SLP160 T01670017
KSDY 161623Z AUTO 28016G21KT 10SM CLR 16/02 A2997 RMK AO2 WSHFT 1558
KSDY 161556Z AUTO 23008KT 210V270 10SM CLR 11/03 A2999 RMK AO2 SLP172 T01060028
KSDY 161456Z AUTO 20005KT 10SM CLR 07/01 A2998 RMK AO2 SLP172 T00670011 53003
KSDY 161356Z AUTO 19008KT 10SM CLR 04/00 A2997 RMK AO2 SLP171 T00440000
KSDY 161256Z AUTO 20005KT 10SM CLR 02/M01 A2997 RMK AO2 SLP170 T00221006 FZRANO
KSDY 161156Z AUTO VRB03KT 10SM CLR 02/M01 A2998 RMK AO2 SLP168 T00221011 10039 20011 56007 FZRANO
KSDY 161056Z AUTO 18005KT 10SM CLR 02/M01 A2999 RMK AO2 SLP169 T00221011 FZRANO
KSDY 160856Z AUTO 20012KT 10SM CLR 02/M01 A3000 RMK AO2 SLP172 T00221011 56022 FZRANO
KSDY 160756Z AUTO 20009KT 10SM CLR 01/M02 A3002 RMK AO2 SLP180 T00111017 FZRANO
KSDY 160656Z AUTO 19007KT 10SM CLR 02/M02 A3004 RMK AO2 SLP187 T00221017 FZRANO
KSDY 160556Z AUTO 21009KT 10SM CLR 04/M01 A3007 RMK AO2 SLP197 T00391011 10111 20011 401500011 58020
KSDY 160456Z AUTO 20007KT 10SM CLR 02/M02 A3010 RMK AO2 SLP211 T00171017 FZRANO
KSDY 160356Z AUTO 16005KT 10SM CLR 01/M02 A3012 RMK AO2 SLP221 T00111017 FZRANO
KSDY 160256Z AUTO 22008KT 10SM CLR 06/M01 A3013 RMK AO2 SLP223 T00561011 58008
KSDY 160156Z AUTO 24004KT 10SM CLR 04/M02 A3015 RMK AO2 SLP231 T00391017
KSDY 160056Z AUTO 27006KT 10SM CLR 06/M02 A3016 RMK AO2 SLP237 T00561017
KSDY 152356Z AUTO 28007KT 10SM CLR 11/M01 A3016 RMK AO2 SLP230 T01111011 10150 20111 58007
KSDY 152256Z AUTO 28012KT 10SM CLR 14/M02 A3017 RMK AO2 SLP230 T01441017
KSDY 152156Z AUTO 27012KT 10SM CLR 15/M01 A3018 RMK AO2 SLP232 T01501011
KSDY 151956Z AUTO 27012G21KT 10SM CLR 14/M01 A3020 RMK AO2 SLP242 T01441011